Time;durP1;ratioP1;P1;durP2;ratioP2;P2;SDS_P1;SDS_P2;PMS_P1;PMS_P2;Temp;Humidity;BMP_temperature;BMP_pressure;BME280_temperature;BME280_humidity;BME280_pressure;Samples;Min_cycle;Max_cycle;Signal;HPM_P1;HPM_P2
2023/11/03 00:02:13;;;;;;;4.47;2.13;;;;;;;;;;5034862;28;20021;-71
2023/11/03 00:04:38;;;;;;;5.50;1.88;;;;;;;;;;5035477;28;20018;-70
2023/11/03 00:07:04;;;;;;;8.55;2.42;;;;;;;;;;5044597;28;20022;-71
2023/11/03 00:09:33;;;;;;;5.93;1.67;;;;;;;;;;5036641;28;20055;-71
2023/11/03 00:12:00;;;;;;;3.50;1.40;;;;;;;;;;5034173;28;20078;-71
2023/11/03 00:14:25;;;;;;;3.33;1.63;;;;;;;;;;5018078;28;20045;-71
2023/11/03 00:16:51;;;;;;;4.80;2.03;;;;;;;;;;5034911;28;20489;-71
2023/11/03 00:19:16;;;;;;;6.05;1.77;;;;;;;;;;5034813;28;20112;-71
2023/11/03 00:21:43;;;;;;;6.90;1.90;;;;;;;;;;5017174;28;20044;-71
2023/11/03 00:24:09;;;;;;;4.65;1.70;;;;;;;;;;5000683;28;20045;-71
2023/11/03 00:26:34;;;;;;;4.60;1.83;;;;;;;;;;5020327;28;20443;-71
2023/11/03 00:29:00;;;;;;;7.57;2.13;;;;;;;;;;5017010;28;20079;-71
2023/11/03 00:31:25;;;;;;;3.67;1.73;;;;;;;;;;5034448;28;20032;-71
2023/11/03 00:33:51;;;;;;;7.72;2.33;;;;;;;;;;5016760;28;20430;-71
2023/11/03 00:36:16;;;;;;;7.38;2.58;;;;;;;;;;5032432;28;20541;-71
2023/11/03 00:38:46;;;;;;;4.95;1.75;;;;;;;;;;5033945;28;20026;-71
2023/11/03 00:41:14;;;;;;;9.60;2.10;;;;;;;;;;5034230;28;20026;-71
2023/11/03 00:43:41;;;;;;;8.10;2.00;;;;;;;;;;5034047;28;20026;-71
2023/11/03 00:46:07;;;;;;;7.97;1.95;;;;;;;;;;5034035;28;20033;-71
2023/11/03 00:48:32;;;;;;;4.88;1.92;;;;;;;;;;5033275;28;20021;-71
2023/11/03 00:50:57;;;;;;;7.68;1.83;;;;;;;;;;5034084;28;20486;-71
2023/11/03 00:53:23;;;;;;;5.03;1.63;;;;;;;;;;5033861;28;20052;-71
2023/11/03 00:55:48;;;;;;;6.03;1.95;;;;;;;;;;5033734;28;20375;-71
2023/11/03 00:58:14;;;;;;;3.75;2.10;;;;;;;;;;5016167;28;20045;-71
2023/11/03 01:00:41;;;;;;;3.55;1.60;;;;;;;;;;5033615;28;20029;-71
2023/11/03 01:03:07;;;;;;;6.28;1.70;;;;;;;;;;5015146;28;20029;-70
2023/11/03 01:05:33;;;;;;;10.48;2.20;;;;;;;;;;5038366;28;20025;-71
2023/11/03 01:07:59;;;;;;;7.47;1.88;;;;;;;;;;5049843;28;20025;-71
2023/11/03 01:10:24;;;;;;;4.43;2.00;;;;;;;;;;5019066;28;20508;-71
2023/11/03 01:12:52;;;;;;;3.80;1.70;;;;;;;;;;5041545;28;20421;-71
2023/11/03 01:15:20;;;;;;;11.80;1.88;;;;;;;;;;5032570;28;20428;-71
2023/11/03 01:17:49;;;;;;;7.30;1.70;;;;;;;;;;5033309;28;20393;-71
2023/11/03 01:20:19;;;;;;;3.35;1.73;;;;;;;;;;5033686;28;20021;-71
2023/11/03 01:22:48;;;;;;;6.65;1.63;;;;;;;;;;5016376;28;20029;-71
2023/11/03 01:25:13;;;;;;;3.95;1.58;;;;;;;;;;5033054;28;20106;-71
2023/11/03 01:27:40;;;;;;;5.72;1.90;;;;;;;;;;5033258;28;20473;-71
2023/11/03 01:30:07;;;;;;;2.00;1.40;;;;;;;;;;5032325;28;20033;-71
2023/11/03 01:32:33;;;;;;;4.88;1.90;;;;;;;;;;5032914;28;20026;-71
2023/11/03 01:34:58;;;;;;;5.40;2.17;;;;;;;;;;5033429;28;20029;-71
2023/11/03 01:37:24;;;;;;;2.92;1.70;;;;;;;;;;5032695;28;20478;-71
2023/11/03 01:39:50;;;;;;;7.43;2.00;;;;;;;;;;5033328;28;20037;-71
2023/11/03 01:42:16;;;;;;;6.38;1.90;;;;;;;;;;5033008;28;20021;-71
2023/11/03 01:44:41;;;;;;;7.15;1.63;;;;;;;;;;5033635;28;20089;-71
2023/11/03 01:47:06;;;;;;;4.15;2.15;;;;;;;;;;5032378;28;20040;-71
2023/11/03 01:49:32;;;;;;;5.53;1.60;;;;;;;;;;5031993;28;20097;-71
2023/11/03 01:51:58;;;;;;;3.72;2.17;;;;;;;;;;5033365;28;20112;-71
2023/11/03 01:54:23;;;;;;;9.02;2.65;;;;;;;;;;5015380;28;20105;-71
2023/11/03 01:56:48;;;;;;;5.85;1.77;;;;;;;;;;5032909;28;20030;-71
2023/11/03 01:59:15;;;;;;;4.80;1.88;;;;;;;;;;5015015;28;20037;-71
2023/11/03 02:01:43;;;;;;;11.10;2.17;;;;;;;;;;5032709;28;20045;-70
2023/11/03 02:04:08;;;;;;;5.40;1.65;;;;;;;;;;5035366;28;20478;-71
2023/11/03 02:06:34;;;;;;;4.68;1.67;;;;;;;;;;5032715;28;20031;-71
2023/11/03 02:08:59;;;;;;;8.05;2.17;;;;;;;;;;5052614;28;20021;-71
2023/11/03 02:11:29;;;;;;;6.03;2.53;;;;;;;;;;5015018;28;20387;-71
2023/11/03 02:13:55;;;;;;;7.40;2.17;;;;;;;;;;5046364;28;20045;-71
2023/11/03 02:16:21;;;;;;;5.68;1.83;;;;;;;;;;5054464;28;20107;-71
2023/11/03 02:18:46;;;;;;;3.80;1.73;;;;;;;;;;5038589;28;20036;-71
2023/11/03 02:21:13;;;;;;;6.20;2.08;;;;;;;;;;5035802;28;20028;-71
2023/11/03 02:23:38;;;;;;;4.05;1.67;;;;;;;;;;5036838;28;20111;-71
2023/11/03 02:26:03;;;;;;;5.68;1.88;;;;;;;;;;5018586;28;20052;-71
2023/11/03 02:28:29;;;;;;;5.00;2.03;;;;;;;;;;5036614;28;20405;-71
2023/11/03 02:30:54;;;;;;;5.45;2.20;;;;;;;;;;5018257;28;20029;-71
2023/11/03 02:33:19;;;;;;;8.02;1.80;;;;;;;;;;5038908;28;20070;-71
2023/11/03 02:35:46;;;;;;;6.38;2.25;;;;;;;;;;5056200;28;20466;-71
2023/11/03 02:38:16;;;;;;;12.73;2.53;;;;;;;;;;5038613;28;20091;-71
2023/11/03 02:40:41;;;;;;;5.05;1.80;;;;;;;;;;5056092;28;20032;-71
2023/11/03 02:43:07;;;;;;;4.13;1.73;;;;;;;;;;5052395;28;20025;-71
2023/11/03 02:45:32;;;;;;;5.65;1.83;;;;;;;;;;5056145;28;20049;-70
2023/11/03 02:47:57;;;;;;;4.22;1.75;;;;;;;;;;5037476;28;20516;-71
2023/11/03 02:50:23;;;;;;;4.30;1.95;;;;;;;;;;5040361;28;20035;-71
2023/11/03 02:52:48;;;;;;;6.53;1.88;;;;;;;;;;5049015;28;20496;-71
2023/11/03 02:55:13;;;;;;;3.17;1.90;;;;;;;;;;5056363;28;20055;-71
2023/11/03 02:57:39;;;;;;;4.10;2.10;;;;;;;;;;5021323;28;20486;-71
2023/11/03 03:00:05;;;;;;;7.72;2.08;;;;;;;;;;5038345;28;20016;-71
2023/11/03 03:02:31;;;;;;;3.15;1.63;;;;;;;;;;5038398;28;20033;-71
2023/11/03 03:04:57;;;;;;;5.53;1.58;;;;;;;;;;5037977;28;20032;-71
2023/11/03 03:07:22;;;;;;;3.90;1.65;;;;;;;;;;5055398;28;20040;-71
2023/11/03 03:09:47;;;;;;;3.83;1.75;;;;;;;;;;5055558;28;20038;-71
2023/11/03 03:12:15;;;;;;;4.25;1.65;;;;;;;;;;5055929;28;20100;-71
2023/11/03 03:14:40;;;;;;;5.05;2.03;;;;;;;;;;5037643;28;20060;-71
2023/11/03 03:17:06;;;;;;;4.32;1.75;;;;;;;;;;5054878;28;20044;-71
2023/11/03 03:19:31;;;;;;;4.65;1.83;;;;;;;;;;5055641;28;20497;-71
2023/11/03 03:21:56;;;;;;;5.03;1.60;;;;;;;;;;5055201;28;20032;-71
2023/11/03 03:24:21;;;;;;;6.28;2.03;;;;;;;;;;5020501;28;20401;-71
2023/11/03 03:26:47;;;;;;;3.50;1.77;;;;;;;;;;5055219;28;20477;-70
2023/11/03 03:29:13;;;;;;;5.63;2.00;;;;;;;;;;5037907;28;20082;-71
2023/11/03 03:31:38;;;;;;;3.05;1.33;;;;;;;;;;5055225;28;20410;-71
2023/11/03 03:34:03;;;;;;;3.47;1.52;;;;;;;;;;5054923;28;20090;-70
2023/11/03 03:36:28;;;;;;;4.72;1.80;;;;;;;;;;5043198;28;20033;-71
2023/11/03 03:38:54;;;;;;;6.75;2.25;;;;;;;;;;5034658;28;20025;-71
2023/11/03 03:41:19;;;;;;;6.03;1.83;;;;;;;;;;5035125;28;20025;-71
2023/11/03 03:43:45;;;;;;;4.03;1.70;;;;;;;;;;5043533;28;20482;-70
2023/11/03 03:46:10;;;;;;;9.13;2.50;;;;;;;;;;5055239;28;20017;-71
2023/11/03 03:48:36;;;;;;;3.38;2.00;;;;;;;;;;5033874;28;20032;-71
2023/11/03 03:51:01;;;;;;;3.55;1.65;;;;;;;;;;5034768;28;20029;-71
2023/11/03 03:53:26;;;;;;;7.63;2.55;;;;;;;;;;5052280;28;20371;-71
2023/11/03 03:55:52;;;;;;;3.97;2.08;;;;;;;;;;5037396;28;20070;-71
2023/11/03 03:58:17;;;;;;;5.63;1.75;;;;;;;;;;5038679;28;20075;-71
2023/11/03 04:00:42;;;;;;;3.15;1.67;;;;;;;;;;5034945;28;20025;-70
2023/11/03 04:03:09;;;;;;;4.65;1.80;;;;;;;;;;5035869;28;20040;-70
2023/11/03 04:05:34;;;;;;;5.15;1.50;;;;;;;;;;5035466;28;20025;-70
2023/11/03 04:07:59;;;;;;;5.72;1.73;;;;;;;;;;5035127;28;20025;-70
2023/11/03 04:10:25;;;;;;;3.95;1.65;;;;;;;;;;5034749;28;20112;-70
2023/11/03 04:12:50;;;;;;;10.48;2.60;;;;;;;;;;5016825;28;20020;-71
2023/11/03 04:15:15;;;;;;;3.65;1.52;;;;;;;;;;5034392;28;20022;-70
2023/11/03 04:17:41;;;;;;;5.97;1.88;;;;;;;;;;5016835;28;20021;-70
2023/11/03 04:20:08;;;;;;;5.28;1.63;;;;;;;;;;5034380;28;20487;-68
2023/11/03 04:22:33;;;;;;;6.78;1.83;;;;;;;;;;5033892;28;20022;-70
2023/11/03 04:24:58;;;;;;;5.85;1.60;;;;;;;;;;5034205;28;20052;-70
2023/11/03 04:27:23;;;;;;;5.03;2.17;;;;;;;;;;5034152;28;20441;-68
2023/11/03 04:29:49;;;;;;;4.80;1.60;;;;;;;;;;5033818;28;20033;-67
2023/11/03 04:32:14;;;;;;;5.10;2.20;;;;;;;;;;5016676;28;20021;-67
2023/11/03 04:34:39;;;;;;;5.50;1.98;;;;;;;;;;5034269;28;20091;-70
2023/11/03 04:37:05;;;;;;;2.88;1.92;;;;;;;;;;5033245;28;20025;-70
2023/11/03 04:39:30;;;;;;;5.22;1.85;;;;;;;;;;5017157;28;20025;-70
2023/11/03 04:41:55;;;;;;;6.57;2.25;;;;;;;;;;5033640;28;20075;-70
2023/11/03 04:44:20;;;;;;;7.10;2.00;;;;;;;;;;5050177;28;20498;-70
2023/11/03 04:46:46;;;;;;;7.03;1.73;;;;;;;;;;5053810;28;20032;-70
2023/11/03 04:49:11;;;;;;;5.90;1.85;;;;;;;;;;5034518;28;20151;-69
2023/11/03 04:51:36;;;;;;;4.55;2.00;;;;;;;;;;5053021;28;20013;-70
2023/11/03 04:54:04;;;;;;;2.20;1.73;;;;;;;;;;5053458;28;20441;-70
2023/11/03 04:56:29;;;;;;;9.98;2.00;;;;;;;;;;5053869;28;20150;-70
2023/11/03 04:58:54;;;;;;;2.30;1.52;;;;;;;;;;5053476;28;20062;-70
2023/11/03 05:01:20;;;;;;;4.68;1.67;;;;;;;;;;5053226;28;20108;-70
2023/11/03 05:03:45;;;;;;;3.35;1.50;;;;;;;;;;5053461;28;20501;-70
2023/11/03 05:06:11;;;;;;;4.30;1.75;;;;;;;;;;5053521;28;20028;-70
2023/11/03 05:08:36;;;;;;;7.38;1.50;;;;;;;;;;5053424;28;20025;-70
2023/11/03 05:11:02;;;;;;;3.92;1.70;;;;;;;;;;5035513;28;20035;-70
2023/11/03 05:13:27;;;;;;;3.80;1.63;;;;;;;;;;5035469;28;20020;-70
2023/11/03 05:15:52;;;;;;;4.68;1.70;;;;;;;;;;5035263;28;20033;-70
2023/11/03 05:18:17;;;;;;;4.63;1.95;;;;;;;;;;5053218;28;20029;-70
2023/11/03 05:20:43;;;;;;;4.20;1.75;;;;;;;;;;5053223;28;20474;-70
2023/11/03 05:23:08;;;;;;;1.75;1.42;;;;;;;;;;5030349;28;20029;-70
2023/11/03 05:25:33;;;;;;;3.65;1.73;;;;;;;;;;5015829;28;20029;-70
2023/11/03 05:27:59;;;;;;;2.95;1.45;;;;;;;;;;5017431;28;20032;-70
2023/11/03 05:30:25;;;;;;;3.08;2.63;;;;;;;;;;5053380;28;20021;-70
2023/11/03 05:32:50;;;;;;;6.28;1.67;;;;;;;;;;5052967;28;20155;-70
2023/11/03 05:35:16;;;;;;;2.28;1.48;;;;;;;;;;5053245;28;20059;-70
2023/11/03 05:37:41;;;;;;;4.18;1.73;;;;;;;;;;5034973;28;20124;-70
2023/11/03 05:40:11;;;;;;;5.00;2.08;;;;;;;;;;5040964;28;20057;-70
2023/11/03 05:42:37;;;;;;;3.15;1.63;;;;;;;;;;5033427;28;20029;-70
2023/11/03 05:45:03;;;;;;;5.10;1.90;;;;;;;;;;5033133;28;20076;-70
2023/11/03 05:47:29;;;;;;;5.05;1.70;;;;;;;;;;5033342;28;20044;-70
2023/11/03 05:49:54;;;;;;;4.95;1.88;;;;;;;;;;5035311;28;20029;-70
2023/11/03 05:52:19;;;;;;;4.32;1.88;;;;;;;;;;5019370;28;20087;-70
2023/11/03 05:54:45;;;;;;;6.50;2.83;;;;;;;;;;5037354;28;20036;-70
2023/11/03 05:57:10;;;;;;;5.18;1.95;;;;;;;;;;5037079;28;20021;-70
2023/11/03 05:59:35;;;;;;;3.45;2.13;;;;;;;;;;5035247;28;20113;-70
2023/11/03 06:02:01;;;;;;;4.80;2.47;;;;;;;;;;5037217;28;20398;-70
2023/11/03 06:04:26;;;;;;;6.95;2.92;;;;;;;;;;5036985;28;20103;-70
2023/11/03 06:06:51;;;;;;;3.78;2.63;;;;;;;;;;5018565;28;20025;-70
2023/11/03 06:09:17;;;;;;;3.20;2.10;;;;;;;;;;5019221;28;20398;-70
2023/11/03 06:11:42;;;;;;;4.45;2.05;;;;;;;;;;5019314;28;20017;-70
2023/11/03 06:14:07;;;;;;;9.25;2.45;;;;;;;;;;5019213;28;20040;-70
2023/11/03 06:16:36;;;;;;;3.58;2.75;;;;;;;;;;5019192;28;20103;-70
2023/11/03 06:19:01;;;;;;;5.90;2.40;;;;;;;;;;5002595;28;20022;-70
2023/11/03 06:21:28;;;;;;;6.78;2.85;;;;;;;;;;5036632;28;20082;-70
2023/11/03 06:23:53;;;;;;;4.28;2.25;;;;;;;;;;5019485;28;20096;-70
2023/11/03 06:26:19;;;;;;;6.07;2.40;;;;;;;;;;5018739;28;20573;-70
2023/11/03 06:28:44;;;;;;;6.10;2.42;;;;;;;;;;5036222;28;20429;-70
2023/11/03 06:31:11;;;;;;;4.40;2.15;;;;;;;;;;5036129;28;20033;-70
2023/11/03 06:33:36;;;;;;;5.82;2.00;;;;;;;;;;5019235;28;20037;-70
2023/11/03 06:36:02;;;;;;;4.90;1.85;;;;;;;;;;5036187;28;20036;-70
2023/11/03 06:38:29;;;;;;;4.93;2.22;;;;;;;;;;5018757;28;20537;-70
2023/11/03 06:40:55;;;;;;;4.88;2.28;;;;;;;;;;5036496;28;20029;-70
2023/11/03 06:43:20;;;;;;;4.20;2.13;;;;;;;;;;5018273;28;20116;-70
2023/11/03 06:45:45;;;;;;;9.13;2.10;;;;;;;;;;5018493;28;20071;-70
2023/11/03 06:48:11;;;;;;;5.00;2.58;;;;;;;;;;5036294;28;20027;-70
2023/11/03 06:50:36;;;;;;;3.50;2.13;;;;;;;;;;5035656;28;20554;-70
2023/11/03 06:53:02;;;;;;;3.75;2.30;;;;;;;;;;5035929;28;20029;-70
2023/11/03 06:55:29;;;;;;;7.85;2.42;;;;;;;;;;5035980;28;20029;-70
2023/11/03 06:57:55;;;;;;;3.45;2.10;;;;;;;;;;5037496;28;20051;-70
2023/11/03 07:00:20;;;;;;;6.20;2.70;;;;;;;;;;5055460;28;20116;-70
2023/11/03 07:02:45;;;;;;;6.85;2.83;;;;;;;;;;5053796;28;20032;-70
2023/11/03 07:05:11;;;;;;;9.00;2.63;;;;;;;;;;5038113;28;20584;-70
2023/11/03 07:07:36;;;;;;;6.47;2.58;;;;;;;;;;5048476;28;20025;-70
2023/11/03 07:10:02;;;;;;;4.10;2.28;;;;;;;;;;5034753;28;20049;-70
2023/11/03 07:12:27;;;;;;;7.25;2.55;;;;;;;;;;5035077;28;20122;-69
2023/11/03 07:14:53;;;;;;;5.68;2.65;;;;;;;;;;5028838;28;20025;-70
2023/11/03 07:17:18;;;;;;;6.10;2.80;;;;;;;;;;5035922;28;20033;-70
2023/11/03 07:19:44;;;;;;;8.90;2.58;;;;;;;;;;5017807;28;20021;-70
2023/11/03 07:22:09;;;;;;;9.52;3.17;;;;;;;;;;5035765;28;20104;-70
2023/11/03 07:24:35;;;;;;;3.92;2.65;;;;;;;;;;5035158;28;20071;-70
2023/11/03 07:27:01;;;;;;;4.72;2.50;;;;;;;;;;5035494;28;20029;-70
2023/11/03 07:29:26;;;;;;;4.25;2.70;;;;;;;;;;5017909;28;20068;-70
2023/11/03 07:31:51;;;;;;;6.55;2.65;;;;;;;;;;5035510;28;20021;-70
2023/11/03 07:34:18;;;;;;;4.00;2.60;;;;;;;;;;5035522;28;20032;-70
2023/11/03 07:36:44;;;;;;;4.43;2.53;;;;;;;;;;5034930;28;20030;-70
2023/11/03 07:39:09;;;;;;;3.60;2.22;;;;;;;;;;5035269;28;20032;-70
2023/11/03 07:41:35;;;;;;;7.68;2.10;;;;;;;;;;5035472;28;20022;-70
2023/11/03 07:44:01;;;;;;;3.80;2.38;;;;;;;;;;5017940;28;20033;-70
2023/11/03 07:46:30;;;;;;;6.95;2.00;;;;;;;;;;5035225;28;20475;-70
2023/11/03 07:48:57;;;;;;;5.30;2.47;;;;;;;;;;5035625;28;20040;-70
2023/11/03 07:51:22;;;;;;;6.45;2.75;;;;;;;;;;5035644;28;20678;-70
2023/11/03 07:53:47;;;;;;;5.07;2.22;;;;;;;;;;5036547;28;20041;-70
2023/11/03 07:56:13;;;;;;;4.35;2.50;;;;;;;;;;5034819;28;20083;-70
2023/11/03 07:58:39;;;;;;;7.40;2.50;;;;;;;;;;5017542;28;20029;-70
2023/11/03 08:01:05;;;;;;;4.07;1.90;;;;;;;;;;5034972;28;20099;-70
2023/11/03 08:03:31;;;;;;;6.40;2.72;;;;;;;;;;5017871;28;20025;-70
2023/11/03 08:05:58;;;;;;;6.07;2.33;;;;;;;;;;5016934;28;20420;-70
2023/11/03 08:08:24;;;;;;;4.15;2.70;;;;;;;;;;5034965;28;20029;-70
2023/11/03 08:10:50;;;;;;;4.88;2.22;;;;;;;;;;5033606;28;20100;-70
2023/11/03 08:13:16;;;;;;;4.07;2.47;;;;;;;;;;5016248;28;20447;-70
2023/11/03 08:15:42;;;;;;;5.57;2.58;;;;;;;;;;5034680;28;20426;-70
2023/11/03 08:18:07;;;;;;;3.47;2.30;;;;;;;;;;5034407;28;20474;-70
2023/11/03 08:20:32;;;;;;;4.18;2.20;;;;;;;;;;5034041;28;20108;-70
2023/11/03 08:23:01;;;;;;;7.60;2.22;;;;;;;;;;5034367;28;20486;-70
2023/11/03 08:25:27;;;;;;;2.83;2.15;;;;;;;;;;5034336;28;20101;-70
2023/11/03 08:27:52;;;;;;;5.05;2.63;;;;;;;;;;5016873;28;20107;-70
2023/11/03 08:30:18;;;;;;;5.75;2.67;;;;;;;;;;5016662;28;20029;-70
2023/11/03 08:32:46;;;;;;;10.13;2.42;;;;;;;;;;5034192;28;20017;-70
2023/11/03 08:35:11;;;;;;;6.18;2.33;;;;;;;;;;5033682;28;20029;-70
2023/11/03 08:37:37;;;;;;;9.40;2.70;;;;;;;;;;5022363;28;20025;-70
2023/11/03 08:40:03;;;;;;;4.60;2.45;;;;;;;;;;5033115;28;20029;-70
2023/11/03 08:42:28;;;;;;;8.38;2.45;;;;;;;;;;5029261;28;20068;-70
2023/11/03 08:44:53;;;;;;;6.47;2.65;;;;;;;;;;5031476;28;20022;-70
2023/11/03 08:47:19;;;;;;;6.65;3.00;;;;;;;;;;5032450;28;20474;-70
2023/11/03 08:49:44;;;;;;;6.97;3.38;;;;;;;;;;5033780;28;20029;-70
2023/11/03 08:52:09;;;;;;;5.65;2.80;;;;;;;;;;5032548;28;20049;-70
2023/11/03 08:54:35;;;;;;;3.33;2.72;;;;;;;;;;5033834;28;20184;-70
2023/11/03 08:57:02;;;;;;;3.17;2.58;;;;;;;;;;5033172;28;20025;-70
2023/11/03 08:59:28;;;;;;;4.18;2.72;;;;;;;;;;5034013;28;20055;-70
2023/11/03 09:01:55;;;;;;;5.07;3.05;;;;;;;;;;5016166;28;20506;-70
2023/11/03 09:04:22;;;;;;;6.32;2.90;;;;;;;;;;5033605;28;20029;-70
2023/11/03 09:06:47;;;;;;;4.07;3.17;;;;;;;;;;5033716;28;20022;-70
2023/11/03 09:09:12;;;;;;;6.18;3.28;;;;;;;;;;5015299;28;20025;-70
2023/11/03 09:11:40;;;;;;;5.55;3.10;;;;;;;;;;5033912;28;20024;-70
2023/11/03 09:14:06;;;;;;;5.28;3.20;;;;;;;;;;5033268;28;20028;-70
2023/11/03 09:16:31;;;;;;;4.25;2.92;;;;;;;;;;5032707;28;20029;-70
2023/11/03 09:18:59;;;;;;;4.60;3.30;;;;;;;;;;5052690;28;20029;-70
2023/11/03 09:21:25;;;;;;;5.22;3.72;;;;;;;;;;5035632;28;20028;-70
2023/11/03 09:23:51;;;;;;;6.65;3.15;;;;;;;;;;5035583;28;20025;-70
2023/11/03 09:26:16;;;;;;;6.13;3.28;;;;;;;;;;5032717;28;20040;-70
2023/11/03 09:28:42;;;;;;;7.93;4.30;;;;;;;;;;5015824;28;20501;-70
2023/11/03 09:31:07;;;;;;;5.50;2.97;;;;;;;;;;5033278;28;20032;-70
2023/11/03 09:33:32;;;;;;;3.30;2.80;;;;;;;;;;5032687;28;20035;-69
2023/11/03 09:35:58;;;;;;;4.93;2.97;;;;;;;;;;5033259;28;20096;-69
2023/11/03 09:38:23;;;;;;;7.57;3.22;;;;;;;;;;5033209;28;20025;-70
2023/11/03 09:40:50;;;;;;;4.75;3.08;;;;;;;;;;5032218;28;20033;-70
2023/11/03 09:43:16;;;;;;;5.07;3.22;;;;;;;;;;5039206;28;20120;-70
2023/11/03 09:45:42;;;;;;;3.67;2.75;;;;;;;;;;5052942;28;20033;-70
2023/11/03 09:48:08;;;;;;;8.35;3.15;;;;;;;;;;5052845;28;20033;-71
2023/11/03 09:50:34;;;;;;;6.90;2.85;;;;;;;;;;5035385;28;20099;-70
2023/11/03 09:53:00;;;;;;;4.47;2.90;;;;;;;;;;5052546;28;20024;-70
2023/11/03 09:55:27;;;;;;;5.82;2.83;;;;;;;;;;5031236;28;20021;-70
2023/11/03 09:58:01;;;;;;;4.60;2.83;;;;;;;;;;5015233;28;20479;-70
2023/11/03 10:00:27;;;;;;;6.13;3.33;;;;;;;;;;5033002;28;20029;-70
2023/11/03 10:02:52;;;;;;;4.25;3.00;;;;;;;;;;5015321;28;20109;-70
2023/11/03 10:05:18;;;;;;;5.63;2.90;;;;;;;;;;5015169;28;20032;-70
2023/11/03 10:07:51;;;;;;;6.05;2.90;;;;;;;;;;5017445;28;20075;-70
2023/11/03 10:10:16;;;;;;;5.30;2.58;;;;;;;;;;5032675;28;20061;-70
2023/11/03 10:12:43;;;;;;;3.28;2.45;;;;;;;;;;5017313;28;20049;-71
2023/11/03 10:15:10;;;;;;;4.10;2.30;;;;;;;;;;5032925;28;20032;-71
2023/11/03 10:17:35;;;;;;;8.15;2.65;;;;;;;;;;5032059;28;20029;-70
2023/11/03 10:20:02;;;;;;;3.08;1.95;;;;;;;;;;5031664;28;20022;-71
2023/11/03 10:22:28;;;;;;;3.58;2.00;;;;;;;;;;5032550;28;20056;-70
2023/11/03 10:24:53;;;;;;;4.82;2.05;;;;;;;;;;5031409;28;20021;-70
2023/11/03 10:27:19;;;;;;;4.80;2.13;;;;;;;;;;5031477;28;20544;-70
2023/11/03 10:29:45;;;;;;;3.22;1.95;;;;;;;;;;5031060;28;20025;-70
2023/11/03 10:32:10;;;;;;;3.92;2.13;;;;;;;;;;5032843;28;20109;-70
2023/11/03 10:34:36;;;;;;;5.38;2.40;;;;;;;;;;5033377;28;20017;-70
2023/11/03 10:37:02;;;;;;;2.60;1.73;;;;;;;;;;5034294;28;20367;-70
2023/11/03 10:39:28;;;;;;;3.65;2.10;;;;;;;;;;5036293;28;20025;-70
2023/11/03 10:41:55;;;;;;;4.75;2.10;;;;;;;;;;5035895;28;20026;-70
2023/11/03 10:44:21;;;;;;;3.67;2.17;;;;;;;;;;5044475;28;20029;-69
2023/11/03 10:46:58;;;;;;;4.47;2.17;;;;;;;;;;5017720;28;20052;-69
2023/11/03 10:49:29;;;;;;;4.40;2.65;;;;;;;;;;5018437;28;20075;-69
2023/11/03 10:52:13;;;;;;;6.60;2.05;;;;;;;;;;5018785;28;20024;-69
2023/11/03 10:54:59;;;;;;;4.32;2.10;;;;;;;;;;5036542;28;20022;-69
2023/11/03 10:57:25;;;;;;;4.10;2.05;;;;;;;;;;5055049;28;20028;-70
2023/11/03 11:00:09;;;;;;;6.00;2.35;;;;;;;;;;5037979;28;20020;-70
2023/11/03 11:02:37;;;;;;;4.15;2.13;;;;;;;;;;5069579;22;20048;-71
2023/11/03 11:05:14;;;;;;;4.68;2.08;;;;;;;;;;5035028;28;20083;-73
2023/11/03 11:07:41;;;;;;;3.22;2.22;;;;;;;;;;5036094;28;20418;-71
2023/11/03 11:10:08;;;;;;;4.72;2.28;;;;;;;;;;5018084;28;20505;-71
2023/11/03 11:12:48;;;;;;;6.00;2.03;;;;;;;;;;5018422;28;20044;-71
2023/11/03 11:15:19;;;;;;;3.55;2.55;;;;;;;;;;5035928;28;20021;-71
2023/11/03 11:17:45;;;;;;;6.72;2.15;;;;;;;;;;5017497;28;20375;-71
2023/11/03 11:20:15;;;;;;;4.47;2.00;;;;;;;;;;5035693;28;20032;-71
2023/11/03 11:22:42;;;;;;;5.85;2.30;;;;;;;;;;5015381;28;20671;-71
2023/11/03 11:25:10;;;;;;;6.95;2.40;;;;;;;;;;5031269;28;20026;-71
2023/11/03 11:27:38;;;;;;;4.50;2.28;;;;;;;;;;5035111;28;20072;-71
2023/11/03 11:30:12;;;;;;;6.53;2.30;;;;;;;;;;5035636;28;20037;-72
2023/11/03 11:32:37;;;;;;;3.25;2.72;;;;;;;;;;5035229;28;20026;-71
2023/11/03 11:35:03;;;;;;;8.65;2.20;;;;;;;;;;5035574;28;20568;-71
2023/11/03 11:37:31;;;;;;;2.97;2.28;;;;;;;;;;5017625;28;20033;-72
2023/11/03 11:40:03;;;;;;;6.28;2.42;;;;;;;;;;5017534;28;20048;-71
2023/11/03 11:42:30;;;;;;;8.57;2.60;;;;;;;;;;5034626;28;20105;-71
2023/11/03 11:44:57;;;;;;;3.55;2.33;;;;;;;;;;5016858;28;20025;-71
2023/11/03 11:47:25;;;;;;;4.57;2.67;;;;;;;;;;5035204;28;20086;-71
2023/11/03 11:49:52;;;;;;;5.18;2.70;;;;;;;;;;4996491;28;20494;-71
2023/11/03 11:52:20;;;;;;;6.47;2.50;;;;;;;;;;5014692;28;20022;-71
2023/11/03 11:54:47;;;;;;;7.80;3.05;;;;;;;;;;5024883;28;20053;-71
2023/11/03 11:57:12;;;;;;;5.28;3.05;;;;;;;;;;5034788;28;20551;-71
2023/11/03 11:59:39;;;;;;;5.65;2.10;;;;;;;;;;5016928;28;20033;-71
2023/11/03 12:02:05;;;;;;;6.38;2.65;;;;;;;;;;5016732;28;20021;-71
2023/11/03 12:04:30;;;;;;;4.78;2.47;;;;;;;;;;5033257;28;20498;-71
2023/11/03 12:06:56;;;;;;;5.72;2.90;;;;;;;;;;5015436;28;20018;-71
2023/11/03 12:09:21;;;;;;;6.80;2.55;;;;;;;;;;5014788;28;20407;-71
2023/11/03 12:11:46;;;;;;;8.65;2.65;;;;;;;;;;5014916;28;20018;-71
2023/11/03 12:14:12;;;;;;;7.18;3.13;;;;;;;;;;5014532;28;20060;-71
2023/11/03 12:16:38;;;;;;;4.32;3.20;;;;;;;;;;5014116;28;20025;-71
2023/11/03 12:19:04;;;;;;;5.82;2.90;;;;;;;;;;5013539;28;20029;-71
2023/11/03 12:21:30;;;;;;;5.30;3.40;;;;;;;;;;4996645;28;20021;-71
2023/11/03 12:24:00;;;;;;;8.65;3.75;;;;;;;;;;5014606;28;20025;-71
2023/11/03 12:26:26;;;;;;;6.32;3.30;;;;;;;;;;5014402;28;20434;-71
2023/11/03 12:28:52;;;;;;;7.50;3.20;;;;;;;;;;5014485;28;20030;-71
2023/11/03 12:31:20;;;;;;;10.70;3.72;;;;;;;;;;4996484;28;20398;-71
2023/11/03 12:33:45;;;;;;;7.32;3.20;;;;;;;;;;5013115;28;20022;-71
2023/11/03 12:36:11;;;;;;;7.68;3.50;;;;;;;;;;5014331;28;20394;-71
2023/11/03 12:38:46;;;;;;;8.43;3.35;;;;;;;;;;5014219;28;20100;-71
2023/11/03 12:41:16;;;;;;;6.22;3.30;;;;;;;;;;4996314;28;20084;-71
2023/11/03 12:43:48;;;;;;;9.20;3.40;;;;;;;;;;4997427;28;20076;-71
2023/11/03 12:46:13;;;;;;;;;;;;;;;;;;5014569;28;20026;-71
2023/11/03 12:48:39;;;;;;;7.07;3.33;;;;;;;;;;5014447;28;19931;-71
2023/11/03 12:51:07;;;;;;;12.85;3.40;;;;;;;;;;4996585;28;20026;-71
2023/11/03 12:53:44;;;;;;;7.35;3.40;;;;;;;;;;5014042;28;20021;-71
2023/11/03 12:56:11;;;;;;;7.20;3.63;;;;;;;;;;5014211;28;20084;-71
2023/11/03 12:58:36;;;;;;;8.90;3.42;;;;;;;;;;5013331;28;20491;-71
2023/11/03 13:01:04;;;;;;;6.82;3.05;;;;;;;;;;5012888;28;20104;-71
2023/11/03 13:03:29;;;;;;;7.63;3.15;;;;;;;;;;4995403;28;20121;-71
2023/11/03 13:05:55;;;;;;;6.65;3.25;;;;;;;;;;5013797;28;20443;-71
2023/11/03 13:08:20;;;;;;;6.28;2.90;;;;;;;;;;5013913;28;20383;-71
2023/11/03 13:10:46;;;;;;;8.38;3.38;;;;;;;;;;5013786;28;20026;-71
2023/11/03 13:13:12;;;;;;;12.40;3.25;;;;;;;;;;5012097;28;20033;-71
2023/11/03 13:15:37;;;;;;;8.98;3.05;;;;;;;;;;5013582;28;20022;-71
2023/11/03 13:18:04;;;;;;;6.32;3.10;;;;;;;;;;5013745;28;20394;-71
2023/11/03 13:20:29;;;;;;;7.15;2.83;;;;;;;;;;5013328;28;20109;-71
2023/11/03 13:22:58;;;;;;;10.00;3.58;;;;;;;;;;5012790;28;20112;-71
2023/11/03 13:25:24;;;;;;;8.02;3.28;;;;;;;;;;4995928;28;20032;-71
2023/11/03 13:27:50;;;;;;;8.65;3.05;;;;;;;;;;5012303;28;20108;-71
2023/11/03 13:30:18;;;;;;;5.18;3.03;;;;;;;;;;5013611;28;20030;-71
2023/11/03 13:32:49;;;;;;;6.85;3.22;;;;;;;;;;5012917;28;20036;-71
2023/11/03 13:35:15;;;;;;;7.13;3.53;;;;;;;;;;4996742;28;20068;-71
2023/11/03 13:37:40;;;;;;;7.13;3.17;;;;;;;;;;5012744;28;20026;-71
2023/11/03 13:40:06;;;;;;;6.75;3.47;;;;;;;;;;5013002;28;20018;-72
2023/11/03 13:42:33;;;;;;;7.20;2.95;;;;;;;;;;5013635;28;20503;-71
2023/11/03 13:44:58;;;;;;;12.55;3.33;;;;;;;;;;4996003;28;20037;-71
2023/11/03 13:47:23;;;;;;;6.30;2.83;;;;;;;;;;5013189;28;20022;-72
2023/11/03 13:49:49;;;;;;;5.85;3.10;;;;;;;;;;5013521;28;20090;-71
2023/11/03 13:52:14;;;;;;;6.07;3.28;;;;;;;;;;5011314;28;20022;-72
2023/11/03 13:54:40;;;;;;;9.05;4.13;;;;;;;;;;4995977;28;20475;-72
2023/11/03 13:57:06;;;;;;;11.35;3.05;;;;;;;;;;5012554;28;20104;-71
2023/11/03 13:59:33;;;;;;;6.72;2.88;;;;;;;;;;5013036;28;20022;-72
2023/11/03 14:01:58;;;;;;;5.47;2.60;;;;;;;;;;4995381;28;20084;-72
2023/11/03 14:04:23;;;;;;;5.93;2.30;;;;;;;;;;5012880;28;20034;-70
2023/11/03 14:06:48;;;;;;;11.82;3.05;;;;;;;;;;5012930;28;20475;-72
2023/11/03 14:09:16;;;;;;;10.65;2.65;;;;;;;;;;5013271;28;20029;-72
2023/11/03 14:11:48;;;;;;;8.10;2.45;;;;;;;;;;5016452;28;20022;-72
2023/11/03 14:14:13;;;;;;;7.72;2.50;;;;;;;;;;5017604;28;20076;-71
2023/11/03 14:16:41;;;;;;;7.88;2.45;;;;;;;;;;5016537;28;20109;-71
2023/11/03 14:19:06;;;;;;;6.88;2.80;;;;;;;;;;4998556;28;20026;-71
2023/11/03 14:21:31;;;;;;;7.50;2.45;;;;;;;;;;5016647;28;20096;-71
2023/11/03 14:23:57;;;;;;;8.80;2.70;;;;;;;;;;5016605;28;20036;-71
2023/11/03 14:26:22;;;;;;;4.60;2.80;;;;;;;;;;5016283;28;20030;-71
2023/11/03 14:28:48;;;;;;;9.45;2.63;;;;;;;;;;4999189;28;20018;-71
2023/11/03 14:31:14;;;;;;;8.30;3.05;;;;;;;;;;5015487;28;20087;-71
2023/11/03 14:33:39;;;;;;;13.80;3.22;;;;;;;;;;5034806;28;20048;-71
2023/11/03 14:36:06;;;;;;;5.40;2.30;;;;;;;;;;5035972;28;20059;-71
2023/11/03 14:38:32;;;;;;;6.05;2.75;;;;;;;;;;5020946;28;20115;-71